Time;durP1;ratioP1;P1;durP2;ratioP2;P2;SDS_P1;SDS_P2;PMS_P1;PMS_P2;Temp;Humidity;BMP_temperature;BMP_pressure;BME280_temperature;BME280_humidity;BME280_pressure;Samples;Min_cycle;Max_cycle;Signal;HPM_P1;HPM_P2
2023/06/20 00:01:34;;;;;;;10.18;7.18;;;;;;;17.26;76.02;95032.72;5117996;28;20275;-71
2023/06/20 00:04:01;;;;;;;9.10;7.85;;;;;;;17.23;75.14;95039.88;5118090;28;20205;-71
2023/06/20 00:06:30;;;;;;;8.00;7.05;;;;;;;17.26;75.19;95036.28;5118232;28;20208;-71
2023/06/20 00:08:58;;;;;;;9.35;8.45;;;;;;;17.30;75.01;95036.28;5117926;28;20191;-71
2023/06/20 00:11:26;;;;;;;9.23;8.32;;;;;;;17.32;75.22;95039.50;5117095;28;20191;-71
2023/06/20 00:13:52;;;;;;;9.68;8.50;;;;;;;17.33;75.40;95033.50;5117805;28;20203;-71
2023/06/20 00:16:25;;;;;;;10.50;8.43;;;;;;;17.33;75.85;95036.28;5117578;28;20237;-71
2023/06/20 00:18:54;;;;;;;10.40;8.77;;;;;;;17.37;75.00;95033.50;5116533;28;20627;-71
2023/06/20 00:21:25;;;;;;;9.88;8.88;;;;;;;17.35;75.32;95033.09;5116748;28;20208;-71
2023/06/20 00:23:53;;;;;;;9.70;8.70;;;;;;;17.32;76.20;95034.72;5116707;28;20200;-71
2023/06/20 00:26:21;;;;;;;9.80;8.93;;;;;;;17.32;76.23;95042.28;5117594;28;20207;-70
2023/06/20 00:28:48;;;;;;;10.93;9.10;;;;;;;17.33;76.27;95036.28;5117525;28;20200;-70
2023/06/20 00:31:14;;;;;;;10.00;8.75;;;;;;;17.35;76.10;95029.50;5116833;28;20204;-70
2023/06/20 00:33:46;;;;;;;10.82;8.52;;;;;;;17.32;76.37;95031.13;5117517;28;20223;-70
2023/06/20 00:36:14;;;;;;;9.18;8.18;;;;;;;17.33;76.54;95041.88;5117365;28;20591;-71
2023/06/20 00:38:48;;;;;;;9.57;8.55;;;;;;;17.30;76.35;95039.88;5116831;28;20195;-71
2023/06/20 00:41:16;;;;;;;9.15;8.25;;;;;;;17.19;76.74;95039.06;5116095;28;20234;-70
2023/06/20 00:43:46;;;;;;;10.00;8.98;;;;;;;17.11;76.61;95034.69;5116471;28;20187;-70
2023/06/20 00:46:15;;;;;;;9.57;8.68;;;;;;;17.07;76.10;95039.44;5115106;28;20647;-71
2023/06/20 00:48:49;;;;;;;10.32;9.32;;;;;;;17.05;76.92;95039.84;5117215;28;20184;-71
2023/06/20 00:51:16;;;;;;;10.27;8.80;;;;;;;16.99;77.07;95027.50;5117044;28;20192;-71
2023/06/20 00:53:45;;;;;;;9.60;8.27;;;;;;;16.94;77.00;95029.88;5116877;28;20595;-71
2023/06/20 00:56:13;;;;;;;10.48;9.43;;;;;;;16.96;77.17;95024.72;5116186;28;20204;-71
2023/06/20 00:58:41;;;;;;;10.32;9.27;;;;;;;16.98;76.71;95020.31;5117168;28;20215;-71
2023/06/20 01:01:09;;;;;;;10.65;8.48;;;;;;;16.98;76.66;95022.31;5116257;28;20210;-71
2023/06/20 01:03:37;;;;;;;10.88;8.68;;;;;;;16.94;77.23;95027.09;5116511;28;20195;-71
2023/06/20 01:06:12;;;;;;;9.13;8.20;;;;;;;16.93;77.34;95026.28;5115797;28;20713;-71
2023/06/20 01:08:45;;;;;;;9.20;8.30;;;;;;;16.93;77.33;95019.94;5116165;28;20195;-71
2023/06/20 01:11:16;;;;;;;10.35;8.52;;;;;;;16.82;76.76;95028.25;5116716;28;20660;-71
2023/06/20 01:13:50;;;;;;;8.73;7.85;;;;;;;16.69;76.59;95030.56;5116345;28;20207;-71
2023/06/20 01:16:22;;;;;;;9.10;7.93;;;;;;;16.58;77.28;95027.75;5115682;28;20191;-71
2023/06/20 01:18:59;;;;;;;8.60;7.72;;;;;;;16.57;77.25;95028.16;5116659;28;20263;-71
2023/06/20 01:21:33;;;;;;;8.00;7.20;;;;;;;16.59;77.36;95034.94;5115673;28;20291;-71
2023/06/20 01:24:05;;;;;;;8.68;7.70;;;;;;;16.62;77.67;95027.75;5116043;28;20192;-71
2023/06/20 01:26:46;;;;;;;7.78;7.07;;;;;;;16.64;77.42;95021.81;5115879;28;20229;-71
2023/06/20 01:29:17;;;;;;;8.73;7.85;;;;;;;16.65;77.35;95026.97;5116390;28;20188;-70
2023/06/20 01:31:50;;;;;;;8.32;7.60;;;;;;;16.65;77.54;95024.19;5115968;28;20203;-70
2023/06/20 01:34:21;;;;;;;8.48;7.18;;;;;;;16.65;78.23;95034.53;5115198;28;20210;-70
2023/06/20 01:36:54;;;;;;;7.53;6.85;;;;;;;16.66;77.85;95030.56;5116299;28;20195;-70
2023/06/20 01:39:27;;;;;;;7.75;7.05;;;;;;;16.66;77.94;95034.13;5116254;28;20192;-70
2023/06/20 01:41:57;;;;;;;8.20;7.47;;;;;;;16.66;77.79;95033.34;5114677;28;20235;-70
2023/06/20 01:44:27;;;;;;;7.45;6.68;;;;;;;16.68;77.49;95033.75;5115485;28;20207;-70
2023/06/20 01:46:56;;;;;;;10.15;7.07;;;;;;;16.68;77.74;95034.53;5115337;28;20272;-69
2023/06/20 01:49:26;;;;;;;8.52;7.40;;;;;;;16.59;77.21;95036.88;5114791;28;20215;-69
2023/06/20 01:51:56;;;;;;;8.68;7.20;;;;;;;16.50;77.67;95040.03;5115681;28;20195;-69
2023/06/20 01:54:27;;;;;;;7.97;7.25;;;;;;;16.47;78.03;95046.41;5114931;28;20200;-69
2023/06/20 01:56:54;;;;;;;8.13;7.32;;;;;;;16.45;77.74;95040.44;5115505;28;20286;-70
2023/06/20 01:59:22;;;;;;;8.85;7.05;;;;;;;16.46;78.05;95044.00;5115876;28;20208;-70
2023/06/20 02:01:52;;;;;;;8.43;7.45;;;;;;;16.42;78.09;95046.00;5115833;28;20188;-70
2023/06/20 02:04:20;;;;;;;9.52;7.00;;;;;;;16.33;78.24;95043.53;5114810;28;20211;-70
2023/06/20 02:06:48;;;;;;;9.60;7.60;;;;;;;16.33;78.60;95047.13;5115753;28;20223;-70
2023/06/20 02:09:15;;;;;;;7.95;7.32;;;;;;;16.27;78.64;95040.34;5114942;28;20204;-70
2023/06/20 02:11:46;;;;;;;8.82;7.95;;;;;;;16.27;78.42;95037.56;5114855;28;20192;-70
2023/06/20 02:14:14;;;;;;;8.25;7.43;;;;;;;16.27;78.38;95040.34;5115340;28;20203;-70
2023/06/20 02:16:44;;;;;;;7.60;6.90;;;;;;;16.27;78.57;95034.78;5114505;28;20200;-70
2023/06/20 02:19:11;;;;;;;8.48;7.50;;;;;;;16.23;78.23;95036.75;5115857;28;20180;-70
2023/06/20 02:21:42;;;;;;;9.68;7.18;;;;;;;16.12;77.71;95035.88;5114889;28;20180;-70
2023/06/20 02:24:13;;;;;;;8.43;7.30;;;;;;;16.01;78.31;95043.38;5115738;28;20196;-70
2023/06/20 02:26:47;;;;;;;8.77;7.18;;;;;;;15.95;78.20;95037.41;5115607;28;20233;-70
2023/06/20 02:29:15;;;;;;;8.63;6.90;;;;;;;15.95;78.44;95031.03;5114730;28;20195;-70
2023/06/20 02:31:46;;;;;;;9.60;7.10;;;;;;;15.95;78.41;95034.63;5115556;28;20236;-70
2023/06/20 02:34:18;;;;;;;10.40;7.47;;;;;;;15.87;78.15;95038.53;5115525;28;20242;-70
2023/06/20 02:36:47;;;;;;;9.45;6.63;;;;;;;15.80;78.09;95033.72;5114447;28;20198;-70
2023/06/20 02:39:15;;;;;;;11.20;7.57;;;;;;;15.77;77.87;95031.72;5114516;28;20192;-71
2023/06/20 02:41:43;;;;;;;9.50;7.18;;;;;;;15.80;78.96;95036.50;5115083;28;20671;-71
2023/06/20 02:44:12;;;;;;;8.32;7.53;;;;;;;15.83;78.98;95049.66;5115143;28;20184;-70
2023/06/20 02:46:48;;;;;;;8.15;7.45;;;;;;;15.79;78.80;95053.56;5115108;28;20222;-70
2023/06/20 02:49:20;;;;;;;8.27;7.57;;;;;;;15.80;79.01;95055.19;5114087;28;20191;-70
2023/06/20 02:51:55;;;;;;;11.05;7.93;;;;;;;15.83;78.74;95057.16;5114475;28;20223;-70
2023/06/20 02:54:30;;;;;;;10.45;8.48;;;;;;;15.84;78.81;95059.56;5115100;28;20176;-70
2023/06/20 02:57:01;;;;;;;12.32;8.30;;;;;;;15.88;78.87;95067.94;5114643;28;20188;-70
2023/06/20 02:59:32;;;;;;;11.05;8.00;;;;;;;15.91;78.90;95072.75;5114952;28;20657;-70
2023/06/20 03:02:03;;;;;;;9.48;7.82;;;;;;;15.94;79.11;95077.53;5114567;28;20188;-70
2023/06/20 03:04:32;;;;;;;9.35;8.40;;;;;;;15.95;78.94;95079.13;5115540;28;20192;-70
2023/06/20 03:06:59;;;;;;;10.10;8.10;;;;;;;15.95;79.84;95084.69;5114410;28;20243;-70
2023/06/20 03:09:28;;;;;;;13.05;11.52;;;;;;;15.97;79.87;95087.06;5116126;28;20650;-70
2023/06/20 03:11:55;;;;;;;9.93;8.40;;;;;;;15.97;79.85;95085.06;5118980;28;20195;-70
2023/06/20 03:14:23;;;;;;;11.70;8.90;;;;;;;15.94;80.23;95091.44;5118171;28;20195;-70
2023/06/20 03:16:53;;;;;;;10.48;9.48;;;;;;;15.94;80.21;95091.44;5118383;28;20282;-70
2023/06/20 03:19:19;;;;;;;10.15;9.23;;;;;;;15.95;80.04;95092.22;5118987;28;20202;-70
2023/06/20 03:21:47;;;;;;;9.25;8.35;;;;;;;15.96;79.56;95094.63;5117742;28;20203;-70
2023/06/20 03:24:15;;;;;;;11.30;8.68;;;;;;;15.99;79.50;95093.06;5118471;28;20628;-70
2023/06/20 03:26:43;;;;;;;11.23;8.57;;;;;;;15.97;79.91;95096.19;5118381;28;20223;-70
2023/06/20 03:29:10;;;;;;;9.50;8.57;;;;;;;15.94;80.73;95094.22;5117512;28;20210;-70
2023/06/20 03:31:38;;;;;;;9.55;8.55;;;;;;;15.96;80.46;95099.38;5118657;28;20183;-70
2023/06/20 03:34:10;;;;;;;10.20;9.10;;;;;;;15.99;80.42;95101.41;5117788;28;20725;-70
2023/06/20 03:36:39;;;;;;;12.20;10.02;;;;;;;15.89;79.66;95098.13;5118582;28;20179;-70
2023/06/20 03:39:07;;;;;;;11.38;8.80;;;;;;;15.81;79.53;95095.72;5118427;28;20581;-70
2023/06/20 03:41:35;;;;;;;13.10;8.70;;;;;;;15.81;79.97;95102.06;5117339;28;20239;-70
2023/06/20 03:44:03;;;;;;;13.27;9.02;;;;;;;15.86;79.87;95095.34;5117574;28;20206;-70
2023/06/20 03:46:31;;;;;;;9.18;8.20;;;;;;;15.90;80.23;95098.94;5117366;28;20219;-70
2023/06/20 03:48:59;;;;;;;10.43;8.88;;;;;;;15.91;80.03;95097.78;5117755;28;20248;-70
2023/06/20 03:51:30;;;;;;;10.10;8.30;;;;;;;15.93;79.78;95100.16;5118218;28;20188;-70
2023/06/20 03:53:58;;;;;;;8.77;7.80;;;;;;;15.93;80.04;95098.16;5118374;28;20215;-70
2023/06/20 03:56:26;;;;;;;10.85;8.50;;;;;;;15.96;80.48;95100.19;5118297;28;20218;-68
2023/06/20 03:58:54;;;;;;;10.90;9.23;;;;;;;16.00;80.90;95100.19;5118329;28;20202;-68
2023/06/20 04:01:24;;;;;;;10.15;8.75;;;;;;;16.03;81.02;95093.88;5117306;28;20206;-68
2023/06/20 04:03:52;;;;;;;9.77;8.80;;;;;;;16.04;80.97;95101.03;5118093;28;20196;-68
2023/06/20 04:06:20;;;;;;;9.88;8.88;;;;;;;16.06;81.51;95102.25;5117396;28;20283;-68
2023/06/20 04:08:50;;;;;;;13.32;9.60;;;;;;;16.07;81.18;95112.19;5117220;28;20192;-68
2023/06/20 04:11:17;;;;;;;10.27;9.27;;;;;;;16.09;81.14;95104.25;5116780;28;20188;-68
2023/06/20 04:13:46;;;;;;;10.55;8.90;;;;;;;16.11;81.19;95101.88;5117711;28;20530;-68
2023/06/20 04:16:14;;;;;;;10.27;9.10;;;;;;;16.16;81.77;95103.50;5117591;28;20200;-68
2023/06/20 04:18:42;;;;;;;12.50;11.23;;;;;;;16.19;81.19;95102.69;5117033;28;20203;-68
2023/06/20 04:21:10;;;;;;;13.88;10.57;;;;;;;16.23;80.78;95108.28;5115728;28;20571;-68
2023/06/20 04:23:38;;;;;;;11.57;10.30;;;;;;;16.28;80.86;95111.53;5117817;28;20191;-68
2023/06/20 04:26:11;;;;;;;9.80;8.85;;;;;;;16.33;80.18;95107.56;5117451;28;20627;-68
2023/06/20 04:28:39;;;;;;;9.07;8.23;;;;;;;16.37;79.92;95120.31;5117134;28;20207;-68
2023/06/20 04:31:08;;;;;;;10.70;8.07;;;;;;;16.41;78.89;95122.31;5116888;28;20603;-68
2023/06/20 04:33:36;;;;;;;8.65;7.93;;;;;;;16.43;78.55;95123.53;5117624;28;20237;-68
2023/06/20 04:36:04;;;;;;;9.35;8.40;;;;;;;16.47;78.28;95121.56;5116666;28;20538;-68
2023/06/20 04:38:32;;;;;;;8.90;8.00;;;;;;;16.45;77.95;95115.59;5116858;28;20196;-67
2023/06/20 04:41:01;;;;;;;9.60;8.60;;;;;;;16.47;77.55;95124.34;5116203;28;20215;-68
2023/06/20 04:43:30;;;;;;;9.38;8.48;;;;;;;16.92;77.36;95129.75;5117370;28;20176;-68
2023/06/20 04:45:59;;;;;;;9.02;8.23;;;;;;;17.57;74.85;95123.13;5117424;28;20179;-68
2023/06/20 04:48:28;;;;;;;10.00;7.90;;;;;;;17.20;75.84;95129.03;5117056;28;20207;-68
2023/06/20 04:50:59;;;;;;;8.52;7.68;;;;;;;16.94;76.61;95130.16;5117104;28;20180;-68
2023/06/20 04:53:27;;;;;;;7.97;7.28;;;;;;;16.83;76.95;95133.69;5116434;28;20253;-68
2023/06/20 04:55:53;;;;;;;8.07;7.43;;;;;;;16.77;77.48;95128.88;5117013;28;20219;-67
2023/06/20 04:58:20;;;;;;;8.68;7.85;;;;;;;16.78;77.64;95131.28;5116016;28;20199;-69
2023/06/20 05:00:51;;;;;;;9.02;8.18;;;;;;;16.79;78.33;95132.88;5116103;28;20200;-69
2023/06/20 05:03:19;;;;;;;9.65;8.63;;;;;;;16.83;78.34;95144.03;5117005;28;20199;-69
2023/06/20 05:05:47;;;;;;;9.30;8.40;;;;;;;16.89;78.07;95152.84;5116618;28;20196;-69
2023/06/20 05:08:16;;;;;;;11.48;8.25;;;;;;;16.93;77.99;95154.44;5116281;28;20219;-69
2023/06/20 05:10:44;;;;;;;9.50;8.25;;;;;;;16.97;77.36;95148.88;5115680;28;20200;-69
2023/06/20 05:13:10;;;;;;;9.02;8.05;;;;;;;16.98;76.93;95154.03;5116559;28;20208;-70
2023/06/20 05:15:39;;;;;;;9.35;8.40;;;;;;;17.01;76.51;95142.13;5116528;28;20219;-69
2023/06/20 05:18:07;;;;;;;11.52;10.27;;;;;;;16.97;76.80;95143.31;5116255;28;20196;-70
2023/06/20 05:20:35;;;;;;;9.30;8.40;;;;;;;16.96;76.88;95142.50;5115554;28;20188;-70
2023/06/20 05:23:03;;;;;;;11.50;10.40;;;;;;;16.95;76.79;95135.31;5115601;28;20221;-69
2023/06/20 05:25:31;;;;;;;14.00;12.43;;;;;;;16.95;76.97;95137.31;5115559;28;20212;-69
2023/06/20 05:27:59;;;;;;;12.90;11.60;;;;;;;16.97;77.13;95137.72;5116338;28;20218;-69
2023/06/20 05:30:27;;;;;;;15.23;12.65;;;;;;;16.96;77.10;95131.38;5116517;28;20192;-69
2023/06/20 05:32:55;;;;;;;12.07;10.88;;;;;;;16.98;77.37;95128.97;5116016;28;20191;-69
2023/06/20 05:35:23;;;;;;;11.20;10.10;;;;;;;17.04;77.42;95135.78;5115349;28;20207;-69
2023/06/20 05:37:51;;;;;;;11.07;10.05;;;;;;;17.11;77.61;95125.84;5116054;28;20596;-69
2023/06/20 05:40:18;;;;;;;11.60;10.40;;;;;;;17.20;77.75;95127.03;5115888;28;20596;-68
2023/06/20 05:42:48;;;;;;;11.35;10.25;;;;;;;17.27;77.92;95124.28;5116070;28;20239;-70
2023/06/20 05:45:15;;;;;;;11.00;9.90;;;;;;;17.33;78.13;95117.13;5116184;28;20568;-69
2023/06/20 05:47:47;;;;;;;12.48;10.23;;;;;;;17.38;77.99;95120.72;5115699;28;20207;-70
2023/06/20 05:50:15;;;;;;;11.65;10.00;;;;;;;17.41;77.49;95109.56;5115531;28;20191;-69
2023/06/20 05:52:47;;;;;;;11.05;10.05;;;;;;;17.45;77.67;95109.56;5116161;28;20194;-69
2023/06/20 05:55:14;;;;;;;11.38;9.95;;;;;;;17.51;77.95;95111.59;5115087;28;20263;-69
2023/06/20 05:57:41;;;;;;;13.02;10.40;;;;;;;17.59;77.53;95114.38;5115842;28;20195;-69
2023/06/20 06:00:12;;;;;;;12.45;9.65;;;;;;;17.64;77.91;95119.56;5114741;28;20206;-69
2023/06/20 06:02:41;;;;;;;14.38;10.27;;;;;;;17.68;77.87;95115.56;5115833;28;20213;-69
2023/06/20 06:05:09;;;;;;;12.77;10.85;;;;;;;17.75;78.20;95125.94;5114992;28;20203;-69
2023/06/20 06:07:37;;;;;;;12.07;10.98;;;;;;;17.85;78.10;95138.34;5115591;28;20215;-70
2023/06/20 06:10:08;;;;;;;15.88;14.23;;;;;;;17.91;77.83;95140.31;5115059;28;20199;-69
2023/06/20 06:12:36;;;;;;;13.02;11.05;;;;;;;17.99;77.94;95150.28;5115196;28;20276;-69
2023/06/20 06:15:06;;;;;;;12.55;10.30;;;;;;;18.08;77.52;95147.09;5115927;28;20196;-69
2023/06/20 06:17:35;;;;;;;14.75;11.15;;;;;;;18.13;77.22;95152.28;5115746;28;20198;-69
2023/06/20 06:20:09;;;;;;;11.52;10.43;;;;;;;18.16;77.53;95139.53;5114852;28;20187;-69
2023/06/20 06:22:38;;;;;;;11.23;9.90;;;;;;;18.18;77.16;95143.50;5115802;28;20179;-69
2023/06/20 06:25:11;;;;;;;11.75;10.18;;;;;;;18.19;77.29;95147.91;5114787;28;20589;-69
2023/06/20 06:27:40;;;;;;;10.98;9.15;;;;;;;18.20;77.18;95149.50;5114761;28;20216;-69
2023/06/20 06:30:08;;;;;;;10.35;9.45;;;;;;;18.24;76.96;95147.47;5115783;28;20192;-69
2023/06/20 06:32:37;;;;;;;12.55;10.40;;;;;;;18.29;76.79;95143.47;5115839;28;20179;-68
2023/06/20 06:35:09;;;;;;;12.23;9.80;;;;;;;18.35;76.58;95136.31;5115479;28;20604;-72
2023/06/20 06:37:40;;;;;;;12.38;9.60;;;;;;;18.39;76.14;95128.72;5114670;28;20192;-67
2023/06/20 06:40:12;;;;;;;14.38;10.43;;;;;;;18.44;76.05;95131.09;5115789;28;20207;-70
2023/06/20 06:42:40;;;;;;;13.25;11.30;;;;;;;18.52;75.78;95131.88;5114703;28;20235;-73
2023/06/20 06:45:09;;;;;;;11.85;10.55;;;;;;;18.59;75.97;95125.47;5117985;28;20244;-71
2023/06/20 06:47:37;;;;;;;13.30;11.73;;;;;;;18.64;75.63;95127.88;5119646;28;20208;-69
2023/06/20 06:50:06;;;;;;;15.13;11.32;;;;;;;18.68;76.17;95120.25;5119935;28;20188;-69
2023/06/20 06:52:34;;;;;;;11.98;10.77;;;;;;;18.76;75.18;95122.66;5118612;28;20200;-69
2023/06/20 06:55:02;;;;;;;14.63;10.98;;;;;;;18.80;74.70;95131.00;5119535;28;20241;-68
2023/06/20 06:57:32;;;;;;;13.82;10.68;;;;;;;18.85;73.88;95124.25;5119441;28;20199;-68
2023/06/20 07:00:00;;;;;;;12.25;10.88;;;;;;;18.90;73.31;95126.59;5118526;28;20208;-68
2023/06/20 07:02:27;;;;;;;12.60;10.68;;;;;;;18.95;74.05;95118.59;5119567;28;20180;-69
2023/06/20 07:04:55;;;;;;;10.93;9.82;;;;;;;19.02;73.84;95116.97;5118755;28;20196;-70
2023/06/20 07:07:22;;;;;;;14.20;11.27;;;;;;;19.06;73.64;95110.16;5118404;28;20192;-70
2023/06/20 07:09:50;;;;;;;11.75;10.55;;;;;;;19.11;73.99;95111.75;5118260;28;20207;-70
2023/06/20 07:12:18;;;;;;;12.20;10.95;;;;;;;19.15;73.88;95116.09;5118510;28;20199;-70
2023/06/20 07:14:50;;;;;;;10.30;9.30;;;;;;;19.18;70.99;95114.50;5118034;28;20196;-70
2023/06/20 07:17:17;;;;;;;9.48;8.45;;;;;;;19.22;69.07;95104.88;5117716;28;20196;-69
2023/06/20 07:19:47;;;;;;;10.55;9.43;;;;;;;19.30;69.76;95102.84;5118591;28;20536;-69
2023/06/20 07:22:16;;;;;;;11.95;8.98;;;;;;;19.38;69.67;95106.38;5117691;28;20619;-69
2023/06/20 07:24:42;;;;;;;10.57;9.57;;;;;;;19.42;69.59;95098.75;5117810;28;20196;-68
2023/06/20 07:27:10;;;;;;;9.93;9.05;;;;;;;19.48;69.35;95103.53;5118864;28;20196;-68
2023/06/20 07:29:38;;;;;;;10.45;9.45;;;;;;;19.53;70.47;95107.09;5117889;28;20207;-67
2023/06/20 07:32:10;;;;;;;10.07;9.07;;;;;;;19.57;67.41;95103.06;5118693;28;20188;-68
2023/06/20 07:34:38;;;;;;;9.40;8.10;;;;;;;19.60;67.23;95107.81;5117613;28;20199;-68
2023/06/20 07:37:07;;;;;;;9.50;8.52;;;;;;;19.66;67.60;95103.44;5117658;28;20573;-68
2023/06/20 07:39:35;;;;;;;8.70;7.90;;;;;;;19.70;67.56;95107.00;5117637;28;20291;-68
2023/06/20 07:42:03;;;;;;;9.65;8.02;;;;;;;19.75;67.97;95100.16;5117211;28;20227;-67
2023/06/20 07:44:31;;;;;;;8.50;7.75;;;;;;;19.85;67.39;95102.06;5117310;28;20604;-68
2023/06/20 07:46:58;;;;;;;9.27;8.23;;;;;;;19.91;65.39;95108.84;5117587;28;20200;-68
2023/06/20 07:49:28;;;;;;;9.38;8.15;;;;;;;19.95;64.16;95108.81;5117078;28;20599;-69
2023/06/20 07:51:55;;;;;;;9.32;8.43;;;;;;;19.96;66.29;95107.59;5118371;28;20221;-69
2023/06/20 07:54:26;;;;;;;10.73;8.57;;;;;;;20.02;65.46;95108.75;5118261;28;20201;-69
2023/06/20 07:56:54;;;;;;;9.52;8.52;;;;;;;20.07;67.46;95105.50;5118004;28;20280;-69
2023/06/20 07:59:20;;;;;;;9.55;7.93;;;;;;;20.12;65.78;95105.06;5118203;28;20256;-69
2023/06/20 08:01:48;;;;;;;8.52;7.82;;;;;;;20.17;66.30;95107.41;5118419;28;20188;-69
2023/06/20 08:04:16;;;;;;;8.60;7.90;;;;;;;20.24;63.21;95105.75;5117465;28;20200;-68
2023/06/20 08:06:46;;;;;;;8.13;7.35;;;;;;;20.31;63.16;95109.28;5118140;28;20198;-69
2023/06/20 08:09:13;;;;;;;8.32;7.47;;;;;;;20.36;62.13;95119.22;5117605;28;20204;-69
2023/06/20 08:11:42;;;;;;;8.15;7.38;;;;;;;20.40;62.70;95114.38;5117130;28;20192;-69
2023/06/20 08:14:12;;;;;;;7.38;6.78;;;;;;;20.49;60.94;95120.31;5116799;28;20207;-69
2023/06/20 08:16:40;;;;;;;8.00;7.30;;;;;;;20.52;61.12;95118.72;5117599;28;20219;-69
2023/06/20 08:19:08;;;;;;;7.53;6.82;;;;;;;20.53;60.64;95121.09;5116788;28;20571;-69
2023/06/20 08:21:38;;;;;;;8.00;7.20;;;;;;;20.59;58.04;95122.22;5116849;28;20199;-73
2023/06/20 08:24:08;;;;;;;7.25;6.55;;;;;;;20.68;59.41;95119.72;5117618;28;20188;-69
2023/06/20 08:26:36;;;;;;;6.70;6.20;;;;;;;20.76;59.68;95117.63;5116854;28;20527;-70
2023/06/20 08:29:04;;;;;;;7.80;7.05;;;;;;;20.81;59.14;95107.97;5116753;28;20244;-69
2023/06/20 08:31:36;;;;;;;8.40;7.43;;;;;;;20.97;61.75;95116.59;5116465;28;20287;-69
2023/06/20 08:34:04;;;;;;;7.75;7.05;;;;;;;21.09;58.51;95121.63;5116542;28;20283;-69
2023/06/20 08:36:32;;;;;;;8.15;7.45;;;;;;;21.15;56.39;95114.34;5117507;28;20195;-69
2023/06/20 08:39:00;;;;;;;8.82;7.97;;;;;;;21.16;57.21;95115.13;5116599;28;20199;-69
2023/06/20 08:41:30;;;;;;;8.25;7.55;;;;;;;21.23;57.66;95122.66;5116141;28;20322;-70
2023/06/20 08:43:58;;;;;;;10.20;8.82;;;;;;;21.28;58.34;95119.38;5117331;28;20623;-69
2023/06/20 08:46:26;;;;;;;13.88;10.48;;;;;;;21.29;59.87;95121.78;5117254;28;20193;-69
2023/06/20 08:48:54;;;;;;;15.80;12.07;;;;;;;21.37;60.13;95119.72;5116914;28;20210;-69
2023/06/20 08:51:23;;;;;;;9.30;8.43;;;;;;;21.48;60.87;95128.75;5116872;28;20192;-70
2023/06/20 08:53:50;;;;;;;8.23;7.43;;;;;;;21.59;56.83;95128.63;5117131;28;20187;-69
2023/06/20 08:56:19;;;;;;;7.82;7.13;;;;;;;21.69;57.04;95129.69;5116249;28;20192;-69
2023/06/20 08:58:49;;;;;;;7.93;7.10;;;;;;;21.74;58.13;95115.94;5117067;28;20204;-69
2023/06/20 09:01:16;;;;;;;8.25;7.45;;;;;;;21.77;58.51;95119.94;5115795;28;20203;-69
2023/06/20 09:03:44;;;;;;;8.35;7.65;;;;;;;21.81;57.63;95121.47;5115895;28;20216;-69
2023/06/20 09:06:12;;;;;;;8.30;7.55;;;;;;;21.86;57.15;95117.41;5117269;28;20184;-69
2023/06/20 09:08:43;;;;;;;8.15;7.45;;;;;;;22.05;59.20;95115.88;5115789;28;20219;-69
2023/06/20 09:11:12;;;;;;;7.70;6.85;;;;;;;22.07;59.79;95108.59;5116963;28;20183;-69
2023/06/20 09:13:41;;;;;;;8.23;7.53;;;;;;;22.16;58.76;95113.72;5116029;28;20208;-69
2023/06/20 09:16:10;;;;;;;7.88;7.13;;;;;;;22.23;59.07;95115.63;5115785;28;20272;-70
2023/06/20 09:18:40;;;;;;;8.23;7.38;;;;;;;22.31;59.01;95117.88;5115740;28;20531;-70
2023/06/20 09:21:15;;;;;;;7.68;6.97;;;;;;;22.38;57.14;95110.53;5115965;28;20192;-69
2023/06/20 09:23:43;;;;;;;7.90;7.10;;;;;;;22.37;54.73;95108.94;5116896;28;20194;-69
2023/06/20 09:26:15;;;;;;;7.82;6.93;;;;;;;22.50;58.87;95115.53;5116502;28;20192;-69
2023/06/20 09:28:44;;;;;;;7.78;6.90;;;;;;;22.59;54.37;95107.34;5115993;28;20532;-69
2023/06/20 09:31:14;;;;;;;7.13;6.53;;;;;;;22.47;54.53;95108.75;5116328;28;20260;-69
2023/06/20 09:33:41;;;;;;;8.10;7.40;;;;;;;22.41;56.99;95104.84;5115728;28;20599;-69
2023/06/20 09:36:14;;;;;;;7.97;7.28;;;;;;;22.44;57.66;95106.81;5116299;28;20180;-69
2023/06/20 09:38:43;;;;;;;8.13;7.43;;;;;;;22.58;56.69;95103.72;5116423;28;20195;-69
2023/06/20 09:41:15;;;;;;;7.22;6.53;;;;;;;22.68;58.25;95090.69;5115630;28;20196;-70
2023/06/20 09:43:43;;;;;;;8.43;7.03;;;;;;;22.96;56.92;95094.19;5116154;28;20202;-69
2023/06/20 09:46:13;;;;;;;7.55;6.93;;;;;;;23.06;56.25;95098.81;5116274;28;20183;-70
2023/06/20 09:48:41;;;;;;;7.30;6.70;;;;;;;23.10;58.83;95093.91;5115852;28;20628;-70
2023/06/20 09:51:10;;;;;;;7.97;7.18;;;;;;;23.22;56.33;95084.78;5116067;28;20196;-69
2023/06/20 09:53:44;;;;;;;7.53;6.93;;;;;;;23.44;53.92;95089.97;5116188;28;20644;-69
2023/06/20 09:56:13;;;;;;;8.10;7.47;;;;;;;23.50;56.98;95091.03;5115542;28;20187;-70
2023/06/20 09:58:48;;;;;;;8.15;7.45;;;;;;;23.43;53.84;95091.97;5115493;28;20191;-69
2023/06/20 10:01:21;;;;;;;7.25;6.65;;;;;;;23.27;52.89;95103.97;5115519;28;20191;-70
2023/06/20 10:03:51;;;;;;;7.50;6.80;;;;;;;23.13;52.11;95097.84;5115612;28;20188;-70
2023/06/20 10:06:20;;;;;;;7.05;6.45;;;;;;;22.99;54.22;95096.16;5115472;28;20195;-70
2023/06/20 10:08:51;;;;;;;7.50;6.90;;;;;;;22.86;54.65;95093.16;5115450;28;20512;-69
2023/06/20 10:11:18;;;;;;;7.22;6.65;;;;;;;22.83;55.54;95092.00;5115786;28;20187;-69
2023/06/20 10:13:46;;;;;;;8.00;7.30;;;;;;;22.96;59.74;95080.94;5115453;28;20203;-70
2023/06/20 10:16:15;;;;;;;7.10;6.50;;;;;;;23.19;57.75;95082.06;5115432;28;20227;-70
2023/06/20 10:18:43;;;;;;;7.63;7.00;;;;;;;23.41;56.87;95088.00;5115507;28;20194;-69
2023/06/20 10:21:14;;;;;;;7.57;6.95;;;;;;;23.48;56.20;95090.66;5115721;28;20191;-70
2023/06/20 10:23:42;;;;;;;7.47;6.78;;;;;;;23.68;54.29;95090.66;5114751;28;20221;-70
2023/06/20 10:26:12;;;;;;;8.10;7.40;;;;;;;23.88;54.74;95090.56;5114486;28;20704;-70
2023/06/20 10:28:41;;;;;;;7.88;7.18;;;;;;;23.96;56.25;95084.31;5114674;28;20223;-70
2023/06/20 10:31:09;;;;;;;7.97;7.28;;;;;;;24.07;57.78;95089.69;5114555;28;20600;-69
2023/06/20 10:33:40;;;;;;;7.85;7.15;;;;;;;24.10;54.67;95091.63;5115469;28;20240;-69
2023/06/20 10:36:10;;;;;;;7.28;6.65;;;;;;;24.10;53.46;95086.00;5115356;28;20191;-69
2023/06/20 10:38:39;;;;;;;7.50;6.90;;;;;;;24.03;53.53;95084.13;5114576;28;20191;-70
2023/06/20 10:41:12;;;;;;;7.88;7.28;;;;;;;24.05;53.30;95080.13;5115305;28;20192;-69
2023/06/20 10:43:53;;;;;;;7.80;7.15;;;;;;;24.00;52.79;95075.78;5114703;28;20539;-69
2023/06/20 10:46:23;;;;;;;7.63;7.03;;;;;;;23.84;51.74;95078.59;5115599;28;20241;-69
2023/06/20 10:48:52;;;;;;;8.40;7.60;;;;;;;23.68;54.90;95076.59;5114646;28;20211;-70
2023/06/20 10:51:19;;;;;;;7.63;6.93;;;;;;;23.53;53.37;95076.09;5115159;28;20550;-69
2023/06/20 10:53:48;;;;;;;7.93;7.28;;;;;;;23.39;53.92;95074.38;5115373;28;20175;-69
2023/06/20 10:56:26;;;;;;;8.05;7.30;;;;;;;23.27;53.83;95069.41;5115133;28;20200;-69
2023/06/20 10:58:53;;;;;;;7.65;7.05;;;;;;;23.20;54.49;95072.38;5115170;28;20200;-69
2023/06/20 11:01:20;;;;;;;8.57;7.78;;;;;;;23.12;54.01;95068.16;5115387;28;20210;-69
2023/06/20 11:03:52;;;;;;;8.18;7.38;;;;;;;23.14;57.13;95074.13;5115166;28;20188;-69
2023/06/20 11:06:21;;;;;;;7.55;6.85;;;;;;;23.30;56.80;95066.53;5114484;28;20196;-69
2023/06/20 11:08:50;;;;;;;7.53;6.93;;;;;;;23.54;55.98;95067.19;5114290;28;20202;-69
2023/06/20 11:11:16;;;;;;;7.95;7.25;;;;;;;23.68;54.07;95060.47;5114521;28;20234;-69
2023/06/20 11:13:45;;;;;;;8.30;7.28;;;;;;;23.87;52.70;95060.84;5114186;28;20191;-69
2023/06/20 11:16:21;;;;;;;8.18;7.45;;;;;;;24.03;53.13;95067.25;5113901;28;20558;-69
2023/06/20 11:18:51;;;;;;;8.05;7.03;;;;;;;24.09;53.52;95064.69;5115026;28;20184;-69
2023/06/20 11:21:18;;;;;;;7.30;6.60;;;;;;;24.00;53.52;95059.69;5097844;28;20196;-69
2023/06/20 11:23:59;;;;;;;6.95;6.35;;;;;;;23.90;52.69;95059.97;5115146;28;20237;-69
2023/06/20 11:26:31;;;;;;;8.13;7.38;;;;;;;23.81;52.90;95056.94;5114463;28;20207;-69
2023/06/20 11:28:59;;;;;;;7.85;7.15;;;;;;;23.70;52.18;95062.84;5114691;28;20208;-69
2023/06/20 11:31:28;;;;;;;8.90;8.10;;;;;;;23.61;51.28;95043.72;5116720;28;20192;-69
2023/06/20 11:34:03;;;;;;;8.07;7.28;;;;;;;23.54;51.13;95060.78;5117528;28;20195;-69
2023/06/20 11:36:33;;;;;;;7.75;7.03;;;;;;;23.50;51.27;95057.25;5118533;28;20534;-69
2023/06/20 11:39:05;;;;;;;8.63;7.30;;;;;;;23.50;51.12;95055.22;5118620;28;20202;-69